createdAt,value
2018-01-13T00:03:23.351Z," 5.10"
2018-01-13T00:08:22.031Z," 4.99"
2018-01-13T00:13:17.254Z," 5.12"
2018-01-13T00:18:13.167Z," 5.04"
2018-01-13T00:23:09.551Z," 5.05"
2018-01-13T00:28:05.634Z," 5.07"
2018-01-13T00:33:01.225Z," 4.92"
2018-01-13T00:37:57.130Z," 4.93"
2018-01-13T00:42:52.590Z," 4.94"
2018-01-13T00:47:48.152Z," 4.87"
2018-01-13T00:52:44.057Z," 4.94"
2018-01-13T00:57:41.133Z," 4.89"
2018-01-13T01:02:36.205Z," 4.82"
2018-01-13T01:07:33.951Z," 4.84"
2018-01-13T01:12:29.320Z," 4.82"
2018-01-13T01:17:24.994Z," 4.87"
2018-01-13T01:22:20.866Z," 4.82"
2018-01-13T01:27:17.980Z," 4.74"
2018-01-13T01:32:15.032Z," 4.73"
2018-01-13T01:37:10.572Z," 4.73"
2018-01-13T01:42:07.775Z," 4.74"
2018-01-13T01:47:04.190Z," 4.71"
2018-01-13T01:52:00.969Z," 4.74"
2018-01-13T01:56:57.332Z," 4.70"
2018-01-13T02:01:54.692Z," 4.63"
2018-01-13T02:06:50.920Z," 4.75"
2018-01-13T02:11:45.952Z," 4.68"
2018-01-13T02:16:42.610Z," 4.63"
2018-01-13T02:21:39.174Z," 4.80"
2018-01-13T02:26:37.660Z," 4.78"
2018-01-13T02:31:34.851Z," 4.74"
2018-01-13T02:36:30.463Z," 4.71"
2018-01-13T02:41:27.215Z," 4.68"
2018-01-13T02:46:24.652Z," 4.62"
2018-01-13T02:51:19.772Z," 4.59"
2018-01-13T02:56:16.575Z," 4.56"
2018-01-13T03:01:14.148Z," 4.59"
2018-01-13T03:06:11.531Z," 4.58"
2018-01-13T03:11:06.612Z," 4.56"
2018-01-13T03:16:02.341Z," 4.56"
2018-01-13T03:20:58.900Z," 4.68"
2018-01-13T03:25:55.541Z," 4.58"
2018-01-13T03:30:55.124Z," 4.59"
2018-01-13T03:35:49.873Z," 4.66"
2018-01-13T03:40:45.674Z," 4.63"
2018-01-13T03:45:42.472Z," 4.68"
2018-01-13T03:50:38.835Z," 4.63"
2018-01-13T03:55:34.293Z," 4.63"
2018-01-13T04:00:31.024Z," 4.66"
2018-01-13T04:05:28.110Z," 4.63"
2018-01-13T04:10:23.410Z," 4.60"
2018-01-13T04:15:20.579Z," 4.59"
2018-01-13T04:20:16.916Z," 4.59"
2018-01-13T04:25:13.729Z," 4.59"
2018-01-13T04:30:09.865Z," 4.59"
2018-01-13T04:35:05.327Z," 4.62"
2018-01-13T04:40:01.976Z," 4.53"
2018-01-13T04:44:57.406Z," 4.58"
2018-01-13T04:49:53.061Z," 4.53"
2018-01-13T04:54:48.997Z," 4.60"
2018-01-13T04:59:44.793Z," 4.68"
2018-01-13T05:04:41.334Z," 4.75"
2018-01-13T05:09:37.789Z," 4.77"
2018-01-13T05:14:41.134Z," 4.80"
2018-01-13T05:19:40.557Z," 4.84"
2018-01-13T05:24:35.812Z," 4.74"
2018-01-13T05:29:31.353Z," 4.84"
2018-01-13T05:34:28.198Z," 4.87"
2018-01-13T05:39:24.400Z," 4.84"
2018-01-13T05:44:22.016Z," 4.84"
2018-01-13T05:49:17.321Z," 4.84"
2018-01-13T05:54:14.176Z," 4.86"
2018-01-13T05:59:11.576Z," 4.87"
2018-01-13T06:04:06.838Z," 4.93"
2018-01-13T06:09:02.714Z," 4.93"
2018-01-13T06:13:58.399Z," 4.93"
2018-01-13T06:18:54.776Z," 4.94"
2018-01-13T06:23:50.459Z," 4.89"
2018-01-13T06:28:47.203Z," 4.94"
2018-01-13T06:33:46.924Z," 4.89"
2018-01-13T06:38:42.127Z," 4.93"
2018-01-13T06:43:38.681Z," 5.02"
2018-01-13T06:48:34.227Z," 5.07"
2018-01-13T06:53:32.909Z," 5.08"
2018-01-13T06:58:30.231Z," 5.04"
2018-01-13T07:03:26.496Z," 5.15"
2018-01-13T07:08:22.019Z," 5.07"
2018-01-13T07:13:18.328Z," 5.10"
2018-01-13T07:18:18.793Z," 5.11"
2018-01-13T07:23:16.785Z," 5.12"
2018-01-13T07:28:11.319Z," 5.21"
2018-01-13T07:33:07.154Z," 5.14"
2018-01-13T07:38:02.713Z," 5.14"
2018-01-13T07:42:58.466Z," 5.18"
2018-01-13T07:47:54.079Z," 5.33"
2018-01-13T07:52:50.081Z," 5.25"
2018-01-13T07:57:51.931Z," 5.26"
2018-01-13T08:02:49.538Z," 5.28"
2018-01-13T08:07:45.596Z," 5.36"
2018-01-13T08:12:42.124Z," 5.35"
2018-01-13T08:17:37.488Z," 5.38"
2018-01-13T08:22:34.167Z," 5.38"
2018-01-13T08:27:32.167Z," 5.50"
2018-01-13T08:32:33.319Z," 5.46"
2018-01-13T08:37:30.108Z," 5.53"
2018-01-13T08:42:25.928Z," 5.50"
2018-01-13T08:47:21.920Z," 5.64"
2018-01-13T08:52:18.802Z," 5.69"
2018-01-13T08:57:15.386Z," 5.66"
2018-01-13T09:02:11.819Z," 5.82"
2018-01-13T09:07:07.392Z," 5.72"
2018-01-13T09:12:04.082Z," 5.83"
2018-01-13T09:17:03.873Z," 5.82"
2018-01-13T09:21:59.761Z," 5.86"
2018-01-13T09:26:57.268Z," 6.02"
2018-01-13T09:31:53.633Z," 6.11"
2018-01-13T09:36:49.172Z," 6.19"
2018-01-13T09:41:46.072Z," 6.09"
2018-01-13T09:46:42.600Z," 5.98"
2018-01-13T09:51:39.165Z," 5.99"
2018-01-13T09:56:35.896Z," 6.20"
2018-01-13T10:01:32.480Z," 6.28"
2018-01-13T10:06:27.896Z," 6.33"
2018-01-13T10:11:24.750Z," 6.24"
2018-01-13T10:16:21.987Z," 6.38"
2018-01-13T10:21:20.390Z," 6.45"
2018-01-13T10:26:19.271Z," 6.62"
2018-01-13T10:31:15.287Z," 6.62"
2018-01-13T10:36:11.873Z," 6.64"
2018-01-13T10:41:07.693Z," 6.60"
2018-01-13T10:46:04.933Z," 6.69"
2018-01-13T10:51:00.381Z," 6.82"
2018-01-13T10:55:56.591Z," 6.88"
2018-01-13T11:00:53.446Z," 6.96"
2018-01-13T11:05:50.113Z," 7.10"
2018-01-13T11:10:46.992Z," 7.07"
2018-01-13T11:15:43.860Z," 6.99"
2018-01-13T11:20:40.427Z," 7.06"
2018-01-13T11:25:36.802Z," 7.11"
2018-01-13T11:30:34.236Z," 7.10"
2018-01-13T11:35:29.731Z," 7.13"
2018-01-13T11:40:25.374Z," 7.05"
2018-01-13T11:45:25.173Z," 7.14"
2018-01-13T11:50:20.015Z," 7.11"
2018-01-13T11:55:18.798Z," 7.03"
2018-01-13T12:00:13.918Z," 7.05"
2018-01-13T12:05:12.563Z," 7.13"
2018-01-13T12:10:10.461Z," 7.02"
2018-01-13T12:15:05.631Z," 7.06"
2018-01-13T12:20:01.156Z," 7.07"
2018-01-13T12:24:57.704Z," 7.03"
2018-01-13T12:29:54.509Z," 7.03"
2018-01-13T12:34:50.056Z," 7.15"
2018-01-13T12:39:47.434Z," 7.13"
2018-01-13T12:44:43.788Z," 7.18"
2018-01-13T12:49:39.299Z," 7.24"
2018-01-13T12:54:35.740Z," 7.14"
2018-01-13T12:59:31.456Z," 7.06"
2018-01-13T13:04:28.199Z," 7.18"
2018-01-13T13:09:24.881Z," 7.18"
2018-01-13T13:14:22.098Z," 7.07"
2018-01-13T13:19:17.660Z," 7.17"
2018-01-13T13:24:15.704Z," 7.07"
2018-01-13T13:29:13.831Z," 7.03"
2018-01-13T13:34:09.676Z," 6.96"
2018-01-13T13:39:08.876Z," 6.96"
2018-01-13T13:44:05.626Z," 6.96"
2018-01-13T13:49:02.690Z," 6.89"
2018-01-13T13:53:58.031Z," 6.84"
2018-01-13T13:58:54.763Z," 6.81"
2018-01-13T14:03:54.110Z," 6.87"
2018-01-13T14:08:49.960Z," 6.75"
2018-01-13T14:13:47.457Z," 6.85"
2018-01-13T14:18:43.470Z," 6.79"
2018-01-13T14:23:39.790Z," 6.66"
2018-01-13T14:28:36.087Z," 6.69"
2018-01-13T14:33:33.511Z," 6.72"
2018-01-13T14:38:29.756Z," 6.63"
2018-01-13T14:43:26.274Z," 6.72"
2018-01-13T14:48:21.666Z," 6.74"
2018-01-13T14:53:18.371Z," 6.64"
2018-01-13T14:58:14.229Z," 6.70"
2018-01-13T15:03:10.943Z," 6.66"
2018-01-13T15:08:07.429Z," 6.59"
2018-01-13T15:13:05.149Z," 6.62"
2018-01-13T15:18:02.419Z," 6.56"
2018-01-13T15:22:58.541Z," 6.45"
2018-01-13T15:27:55.811Z," 6.52"
2018-01-13T15:32:53.912Z," 6.44"
2018-01-13T15:37:53.831Z," 6.42"
2018-01-13T15:42:50.229Z," 6.36"
2018-01-13T15:47:49.717Z," 6.35"
2018-01-13T15:52:44.679Z," 6.35"
2018-01-13T15:57:41.382Z," 6.22"
2018-01-13T16:02:42.658Z," 6.22"
2018-01-13T16:07:38.268Z," 6.28"
2018-01-13T16:12:35.676Z," 6.31"
2018-01-13T16:17:31.956Z," 6.12"
2018-01-13T16:22:28.777Z," 6.22"
2018-01-13T16:27:26.123Z," 6.16"
2018-01-13T16:32:22.155Z," 6.12"
2018-01-13T16:37:18.844Z," 6.17"
2018-01-13T16:42:14.807Z," 6.04"
2018-01-13T16:47:12.218Z," 6.04"
2018-01-13T16:52:08.371Z," 5.91"
2018-01-13T16:57:08.546Z," 6.02"
2018-01-13T17:02:09.365Z," 5.94"
2018-01-13T17:07:05.922Z," 5.86"
2018-01-13T17:12:00.727Z," 5.87"
2018-01-13T17:16:57.435Z," 5.84"
2018-01-13T17:21:53.914Z," 5.93"
2018-01-13T17:26:51.736Z," 5.84"
2018-01-13T17:31:51.939Z," 5.82"
2018-01-13T17:36:47.512Z," 5.82"
2018-01-13T17:41:44.651Z," 5.75"
2018-01-13T17:46:44.842Z," 5.82"
2018-01-13T17:51:40.671Z," 5.76"
2018-01-13T17:56:37.159Z," 5.83"
2018-01-13T18:01:34.452Z," 5.71"
2018-01-13T18:06:32.532Z," 5.75"
2018-01-13T18:11:29.587Z," 5.76"
2018-01-13T18:16:25.736Z," 5.71"
2018-01-13T18:21:21.912Z," 5.75"
2018-01-13T18:26:17.971Z," 5.56"
2018-01-13T18:31:14.831Z," 5.73"
2018-01-13T18:36:10.335Z," 5.64"
2018-01-13T18:41:08.109Z," 5.68"
2018-01-13T18:46:05.093Z," 5.76"
2018-01-13T18:51:01.629Z," 5.57"
2018-01-13T18:55:59.837Z," 5.47"
2018-01-13T19:00:57.266Z," 5.50"
2018-01-13T19:05:54.349Z," 5.48"
2018-01-13T19:10:50.839Z," 5.41"
2018-01-13T19:15:48.228Z," 5.36"
2018-01-13T19:20:44.894Z," 5.29"
2018-01-13T19:25:41.488Z," 5.44"
2018-01-13T19:30:37.945Z," 5.32"
2018-01-13T19:35:35.595Z," 5.32"
2018-01-13T19:40:31.932Z," 5.35"
2018-01-13T19:45:27.439Z," 5.33"
2018-01-13T19:50:24.188Z," 5.36"
2018-01-13T19:55:19.322Z," 5.32"
2018-01-13T20:00:18.366Z," 5.36"
2018-01-13T20:05:13.582Z," 5.29"
2018-01-13T20:10:10.279Z," 5.12"
2018-01-13T20:15:05.630Z," 5.21"
2018-01-13T20:20:01.629Z," 5.21"
2018-01-13T20:24:58.122Z," 5.17"
2018-01-13T20:29:54.268Z," 5.12"
2018-01-13T20:34:51.772Z," 5.11"
2018-01-13T20:39:48.879Z," 5.08"
2018-01-13T20:44:45.234Z," 5.08"
2018-01-13T20:49:40.604Z," 5.11"
2018-01-13T20:54:36.194Z," 5.08"
2018-01-13T20:59:31.445Z," 5.05"
2018-01-13T21:04:28.356Z," 5.00"
2018-01-13T21:09:24.621Z," 4.99"
2018-01-13T21:14:20.900Z," 5.05"
2018-01-13T21:19:22.926Z," 4.92"
2018-01-13T21:24:21.191Z," 4.87"
2018-01-13T21:29:17.068Z," 5.00"
2018-01-13T21:34:14.393Z," 4.93"
2018-01-13T21:44:12.324Z," 4.89"
2018-01-13T21:49:13.039Z," 4.96"
2018-01-13T21:54:10.615Z," 4.86"
2018-01-13T21:59:05.600Z," 4.94"
2018-01-13T22:04:01.574Z," 4.92"
2018-01-13T22:09:01.616Z," 4.96"
2018-01-13T22:13:56.541Z," 4.90"
2018-01-13T22:18:53.040Z," 4.67"
2018-01-13T22:23:48.522Z," 4.75"
2018-01-13T22:28:46.245Z," 4.63"
2018-01-13T22:33:42.432Z," 4.56"
2018-01-13T22:38:39.011Z," 4.41"
2018-01-13T22:43:35.145Z," 4.40"
2018-01-13T22:48:31.521Z," 4.40"
2018-01-13T22:53:28.940Z," 4.53"
2018-01-13T22:58:26.082Z," 4.42"
2018-01-13T23:03:22.583Z," 4.44"
2018-01-13T23:08:17.661Z," 4.52"
2018-01-13T23:13:14.948Z," 4.35"
2018-01-13T23:18:12.303Z," 4.26"
2018-01-13T23:23:08.384Z," 4.28"
2018-01-13T23:28:08.730Z," 4.23"
2018-01-13T23:33:05.596Z," 4.31"
2018-01-13T23:38:01.720Z," 4.37"
2018-01-13T23:42:58.841Z," 4.32"
2018-01-13T23:47:55.326Z," 4.24"
2018-01-13T23:52:50.682Z," 4.19"
2018-01-13T23:57:46.986Z," 4.12"
